createdAt,value
2018-03-27T00:02:26.486Z,95240
2018-03-27T00:04:55.330Z,95237
2018-03-27T00:07:23.389Z,95233
2018-03-27T00:09:53.189Z,95239
2018-03-27T00:12:21.239Z,95241
2018-03-27T00:14:50.090Z,95235
2018-03-27T00:17:18.154Z,95231
2018-03-27T00:19:46.224Z,95231
2018-03-27T00:22:14.286Z,95236
2018-03-27T00:24:43.245Z,95239
2018-03-27T00:27:11.398Z,95235
2018-03-27T00:29:57.484Z,95239
2018-03-27T00:32:43.417Z,95242
2018-03-27T00:35:29.318Z,95240
2018-03-27T00:38:15.142Z,95221
2018-03-27T00:40:43.277Z,95238
2018-03-27T00:43:14.774Z,95244
2018-03-27T00:45:42.845Z,95240
2018-03-27T00:48:11.018Z,95238
2018-03-27T00:50:39.090Z,95234
2018-03-27T00:53:07.166Z,95226
2018-03-27T00:55:35.234Z,95237
2018-03-27T00:58:03.304Z,95236
2018-03-27T01:00:32.222Z,95226
2018-03-27T01:03:00.289Z,95235
2018-03-27T01:05:28.333Z,95231
2018-03-27T01:07:56.438Z,95231
2018-03-27T01:10:24.494Z,95231
2018-03-27T01:12:53.319Z,95232
2018-03-27T01:15:21.871Z,95217
2018-03-27T01:17:50.016Z,95230
2018-03-27T01:20:18.059Z,95236
2018-03-27T01:22:46.130Z,95226
2018-03-27T01:25:14.200Z,95242
2018-03-27T01:27:42.262Z,95232
2018-03-27T01:30:10.365Z,95221
2018-03-27T01:32:38.538Z,95238
2018-03-27T01:35:06.626Z,95233
2018-03-27T01:37:34.690Z,95218
2018-03-27T01:40:02.759Z,95220
2018-03-27T01:42:30.825Z,95216
2018-03-27T01:44:58.887Z,95220
2018-03-27T01:47:26.994Z,95215
2018-03-27T01:49:55.053Z,95221
2018-03-27T01:52:23.119Z,95218
2018-03-27T01:54:52.941Z,95213
2018-03-27T01:57:21.007Z,95220
2018-03-27T01:59:49.113Z,95214
2018-03-27T02:02:17.197Z,95214
2018-03-27T02:04:45.262Z,95209
2018-03-27T02:07:13.350Z,95210
2018-03-27T02:09:41.408Z,95212
2018-03-27T02:12:14.932Z,95209
2018-03-27T02:14:48.577Z,95210
2018-03-27T02:17:22.224Z,95211
2018-03-27T02:19:56.011Z,95215
2018-03-27T02:22:24.078Z,95216
2018-03-27T02:24:52.290Z,95208
2018-03-27T02:27:20.462Z,95220
2018-03-27T02:29:48.513Z,95213
2018-03-27T02:32:16.690Z,95223
2018-03-27T02:34:44.748Z,95213
2018-03-27T02:37:13.587Z,95216
2018-03-27T02:39:41.668Z,95218
2018-03-27T02:42:09.745Z,95223
2018-03-27T02:44:37.802Z,95219
2018-03-27T02:47:05.869Z,95214
2018-03-27T02:49:33.930Z,95210
2018-03-27T02:52:03.899Z,95212
2018-03-27T02:54:33.129Z,95212
2018-03-27T02:57:01.167Z,95218
2018-03-27T02:59:29.246Z,95208
2018-03-27T03:01:57.322Z,95221
2018-03-27T03:04:25.384Z,95214
2018-03-27T03:06:53.459Z,95206
2018-03-27T03:09:21.560Z,95216
2018-03-27T03:11:49.634Z,95217
2018-03-27T03:14:17.697Z,95212
2018-03-27T03:16:45.781Z,95209
2018-03-27T03:19:13.863Z,95218
2018-03-27T03:21:41.922Z,95223
2018-03-27T03:24:09.998Z,95214
2018-03-27T03:26:38.113Z,95220
2018-03-27T03:29:06.134Z,95218
2018-03-27T03:31:34.195Z,95225
2018-03-27T03:34:02.261Z,95206
2018-03-27T03:36:31.090Z,95222
2018-03-27T03:38:59.154Z,95215
2018-03-27T03:41:27.220Z,95215
2018-03-27T03:43:55.282Z,95209
2018-03-27T03:46:24.126Z,95215
2018-03-27T03:48:52.194Z,95213
2018-03-27T03:51:20.252Z,95223
2018-03-27T03:53:48.323Z,95221
2018-03-27T03:56:16.377Z,95215
2018-03-27T03:58:45.243Z,95215
2018-03-27T04:01:13.297Z,95226
2018-03-27T04:03:41.370Z,95216
2018-03-27T04:06:09.430Z,95215
2018-03-27T04:08:37.550Z,95222
2018-03-27T04:11:05.597Z,95221
2018-03-27T04:13:35.017Z,95223
2018-03-27T04:16:04.213Z,95215
2018-03-27T04:18:32.279Z,95220
2018-03-27T04:21:00.373Z,95212
2018-03-27T04:23:28.444Z,95227
2018-03-27T04:25:56.507Z,95223
2018-03-27T04:28:24.581Z,95227
2018-03-27T04:30:52.634Z,95223
2018-03-27T04:33:20.698Z,95226
2018-03-27T04:35:49.529Z,95235
2018-03-27T04:38:17.590Z,95245
2018-03-27T04:40:45.674Z,95239
2018-03-27T04:43:13.726Z,95220
2018-03-27T04:45:41.850Z,95237
2018-03-27T04:48:09.918Z,95231
2018-03-27T04:50:37.982Z,95232
2018-03-27T04:53:06.057Z,95243
2018-03-27T04:55:35.381Z,95232
2018-03-27T04:58:04.665Z,95238
2018-03-27T05:00:32.714Z,95240
2018-03-27T05:03:00.784Z,95229
2018-03-27T05:05:29.670Z,95231
2018-03-27T05:07:58.530Z,95229
2018-03-27T05:10:26.599Z,95234
2018-03-27T05:12:54.655Z,95230
2018-03-27T05:15:22.757Z,95239
2018-03-27T05:17:50.826Z,95227
2018-03-27T05:20:18.894Z,95226
2018-03-27T05:22:46.989Z,95229
2018-03-27T05:25:15.061Z,95232
2018-03-27T05:27:43.146Z,95233
2018-03-27T05:30:11.356Z,95241
2018-03-27T05:32:40.178Z,95234
2018-03-27T05:35:08.252Z,95236
2018-03-27T05:37:36.318Z,95236
2018-03-27T05:40:05.098Z,95227
2018-03-27T05:42:35.043Z,95231
2018-03-27T05:45:03.156Z,95235
2018-03-27T05:47:31.338Z,95226
2018-03-27T05:49:59.406Z,95223
2018-03-27T05:52:27.458Z,95231
2018-03-27T05:54:55.551Z,95232
2018-03-27T05:57:23.610Z,95231
2018-03-27T05:59:52.452Z,95231
2018-03-27T06:02:20.514Z,95228
2018-03-27T06:04:49.395Z,95229
2018-03-27T06:07:17.468Z,95225
2018-03-27T06:09:45.558Z,95233
2018-03-27T06:12:13.630Z,95223
2018-03-27T06:14:41.690Z,95246
2018-03-27T06:17:09.836Z,95240
2018-03-27T06:19:38.673Z,95245
2018-03-27T06:22:06.747Z,95252
2018-03-27T06:24:36.362Z,95253
2018-03-27T06:27:05.549Z,95252
2018-03-27T06:29:33.659Z,95249
2018-03-27T06:32:01.724Z,95257
2018-03-27T06:34:29.894Z,95256
2018-03-27T06:36:58.143Z,95260
2018-03-27T06:39:26.257Z,95263
2018-03-27T06:41:54.322Z,95260
2018-03-27T06:44:22.390Z,95263
2018-03-27T06:46:50.451Z,95257
2018-03-27T06:49:18.527Z,95260
2018-03-27T06:51:46.577Z,95255
2018-03-27T06:54:15.409Z,95259
2018-03-27T06:56:44.025Z,95265
2018-03-27T06:59:12.098Z,95276
2018-03-27T07:01:40.166Z,95255
2018-03-27T07:04:08.234Z,95270
2018-03-27T07:06:36.286Z,95268
2018-03-27T07:09:04.368Z,95270
2018-03-27T07:11:32.806Z,95268
2018-03-27T07:14:01.744Z,95272
2018-03-27T07:16:31.290Z,95277
2018-03-27T07:18:59.357Z,95266
2018-03-27T07:21:27.443Z,95272
2018-03-27T07:23:55.521Z,95273
2018-03-27T07:26:23.587Z,95274
2018-03-27T07:28:52.965Z,95279
2018-03-27T07:31:21.050Z,95283
2018-03-27T07:33:49.106Z,95272
2018-03-27T07:36:17.582Z,95284
2018-03-27T07:38:47.150Z,95267
2018-03-27T07:41:15.218Z,95286
2018-03-27T07:43:43.299Z,95276
2018-03-27T07:46:11.361Z,95280
2018-03-27T07:48:39.449Z,95270
2018-03-27T07:51:07.511Z,95275
2018-03-27T07:53:36.731Z,95282
2018-03-27T07:56:04.806Z,95283
2018-03-27T07:58:32.859Z,95281
2018-03-27T08:01:00.923Z,95293
2018-03-27T08:03:29.035Z,95288
2018-03-27T08:05:57.117Z,95299
2018-03-27T08:08:25.168Z,95289
2018-03-27T08:10:54.083Z,95287
2018-03-27T08:13:22.166Z,95283
2018-03-27T08:15:50.301Z,95290
2018-03-27T08:18:18.428Z,95286
2018-03-27T08:20:46.491Z,95276
2018-03-27T08:23:14.898Z,95271
2018-03-27T08:25:42.972Z,95282
2018-03-27T08:28:11.130Z,95281
2018-03-27T08:30:39.310Z,95278
2018-03-27T08:33:07.362Z,95295
2018-03-27T08:35:35.430Z,95286
2018-03-27T08:38:03.509Z,95279
2018-03-27T08:40:31.594Z,95277
2018-03-27T08:42:59.659Z,95282
2018-03-27T08:45:27.766Z,95269
2018-03-27T08:47:55.982Z,95279
2018-03-27T08:50:24.130Z,95268
2018-03-27T08:52:53.243Z,95282
2018-03-27T08:55:21.407Z,95280
2018-03-27T08:57:49.820Z,95281
2018-03-27T09:00:17.970Z,95261
2018-03-27T09:02:46.143Z,95274
2018-03-27T09:05:14.165Z,95286
2018-03-27T09:07:43.018Z,95297
2018-03-27T09:10:11.206Z,95285
2018-03-27T09:12:39.373Z,95285
2018-03-27T09:15:07.805Z,95292
2018-03-27T09:17:35.847Z,95282
2018-03-27T09:20:03.918Z,95274
2018-03-27T09:22:32.086Z,95277
2018-03-27T09:25:00.979Z,95273
2018-03-27T09:27:29.039Z,95283
2018-03-27T09:29:57.097Z,95286
2018-03-27T09:32:25.154Z,95280
2018-03-27T09:34:53.997Z,95286
2018-03-27T09:37:22.066Z,95270
2018-03-27T09:39:50.162Z,95279
2018-03-27T09:42:18.214Z,95268
2018-03-27T09:44:46.326Z,95262
2018-03-27T09:47:14.422Z,95261
2018-03-27T09:49:43.475Z,95265
2018-03-27T09:52:11.527Z,95265
2018-03-27T09:54:39.586Z,95255
2018-03-27T09:57:09.106Z,95255
2018-03-27T09:59:38.281Z,95251
2018-03-27T10:02:08.239Z,95254
2018-03-27T10:04:36.304Z,95258
2018-03-27T10:07:04.418Z,95269
2018-03-27T10:09:32.489Z,95258
2018-03-27T10:12:00.559Z,95255
2018-03-27T10:14:28.610Z,95234
2018-03-27T10:16:56.684Z,95242
2018-03-27T10:19:24.730Z,95248
2018-03-27T10:21:53.591Z,95239
2018-03-27T10:24:21.664Z,95239
2018-03-27T10:26:49.734Z,95227
2018-03-27T10:29:17.818Z,95240
2018-03-27T10:31:45.897Z,95225
2018-03-27T10:34:13.954Z,95227
2018-03-27T10:36:42.016Z,95230
2018-03-27T10:39:10.830Z,95233
2018-03-27T10:41:39.089Z,95233
2018-03-27T10:44:07.138Z,95234
2018-03-27T10:46:35.990Z,95231
2018-03-27T10:49:04.062Z,95230
2018-03-27T10:51:32.139Z,95225
2018-03-27T10:54:00.195Z,95218
2018-03-27T10:56:28.266Z,95227
2018-03-27T10:58:56.321Z,95223
2018-03-27T11:01:25.161Z,95216
2018-03-27T11:03:53.225Z,95212
2018-03-27T11:06:21.289Z,95208
2018-03-27T11:08:49.342Z,95215
2018-03-27T11:11:18.972Z,95225
2018-03-27T11:13:47.030Z,95195
2018-03-27T11:16:15.866Z,95195
2018-03-27T11:18:44.629Z,95195
2018-03-27T11:21:12.703Z,95196
2018-03-27T11:23:40.758Z,95189
2018-03-27T11:26:10.730Z,95185
2018-03-27T11:28:39.537Z,95187
2018-03-27T11:31:07.706Z,95176
2018-03-27T11:33:35.778Z,95182
2018-03-27T11:36:03.850Z,95181
2018-03-27T11:38:31.902Z,95175
2018-03-27T11:40:59.966Z,95174
2018-03-27T11:43:28.022Z,95176
2018-03-27T11:45:56.175Z,95177
2018-03-27T11:48:24.293Z,95150
2018-03-27T11:50:52.733Z,95150
2018-03-27T11:53:20.911Z,95136
2018-03-27T11:55:49.001Z,95132
2018-03-27T11:58:17.166Z,95128
2018-03-27T12:00:45.345Z,95131
2018-03-27T12:03:13.523Z,95116
2018-03-27T12:05:41.602Z,95125
2018-03-27T12:08:10.894Z,95119
2018-03-27T12:10:40.092Z,95103
2018-03-27T12:13:08.154Z,95104
2018-03-27T12:15:36.252Z,95104
2018-03-27T12:18:04.323Z,95094
2018-03-27T12:20:32.403Z,95094
2018-03-27T12:23:00.582Z,95082
2018-03-27T12:25:28.933Z,95070
2018-03-27T12:27:57.020Z,95077
2018-03-27T12:30:25.093Z,95084
2018-03-27T12:32:53.198Z,95075
2018-03-27T12:35:21.262Z,95087
2018-03-27T12:37:49.349Z,95067
2018-03-27T12:40:17.405Z,95060
2018-03-27T12:42:45.483Z,95064
2018-03-27T12:45:13.544Z,95071
2018-03-27T12:47:41.646Z,95074
2018-03-27T12:50:11.335Z,95058
2018-03-27T12:52:40.547Z,95067
2018-03-27T12:55:09.066Z,95072
2018-03-27T12:57:37.954Z,95072
2018-03-27T13:00:06.034Z,95063
2018-03-27T13:02:34.105Z,95064
2018-03-27T13:05:02.177Z,95068
2018-03-27T13:07:30.262Z,95061
2018-03-27T13:09:58.326Z,95060
2018-03-27T13:12:26.388Z,95073
2018-03-27T13:14:54.447Z,95079
2018-03-27T13:17:22.561Z,95073
2018-03-27T13:19:50.640Z,95067
2018-03-27T13:22:18.706Z,95074
2018-03-27T13:24:46.791Z,95072
2018-03-27T13:27:14.869Z,95070
2018-03-27T13:29:42.921Z,95070
2018-03-27T13:32:11.967Z,95064
2018-03-27T13:34:41.149Z,95065
2018-03-27T13:37:09.390Z,95057
2018-03-27T13:39:37.450Z,95051
2018-03-27T13:42:06.286Z,95049
2018-03-27T13:44:34.365Z,95041
2018-03-27T13:47:02.432Z,95044
2018-03-27T13:49:30.498Z,95037
2018-03-27T13:51:58.898Z,95026
2018-03-27T13:54:26.979Z,95017
2018-03-27T13:56:55.178Z,95023
2018-03-27T13:59:23.339Z,95018
2018-03-27T14:01:53.207Z,95023
2018-03-27T14:04:22.044Z,95021
2018-03-27T14:06:50.172Z,95011
2018-03-27T14:09:18.205Z,95016
2018-03-27T14:11:46.282Z,95009
2018-03-27T14:14:14.361Z,95008
2018-03-27T14:16:42.434Z,95001
2018-03-27T14:19:11.630Z,95006
2018-03-27T14:21:39.810Z,94996
2018-03-27T14:24:07.890Z,95000
2018-03-27T14:26:36.057Z,94994
2018-03-27T14:29:04.238Z,94996
2018-03-27T14:31:32.298Z,94983
2018-03-27T14:34:00.414Z,94990
2018-03-27T14:36:28.489Z,94982
2018-03-27T14:38:57.539Z,94983
2018-03-27T14:41:25.655Z,94985
2018-03-27T14:43:53.746Z,94985
2018-03-27T14:46:21.810Z,94980
2018-03-27T14:48:49.982Z,94990
2018-03-27T14:51:18.061Z,94986
2018-03-27T14:53:46.126Z,94986
2018-03-27T14:56:14.184Z,94981
2018-03-27T14:58:42.252Z,94986
2018-03-27T15:01:10.316Z,94985
2018-03-27T15:03:38.434Z,94968
2018-03-27T15:06:06.490Z,94981
2018-03-27T15:08:34.589Z,94976
2018-03-27T15:11:03.378Z,94972
2018-03-27T15:13:31.446Z,94964
2018-03-27T15:15:59.512Z,94969
2018-03-27T15:18:27.606Z,94965
2018-03-27T15:20:55.694Z,94951
2018-03-27T15:23:23.866Z,94949
2018-03-27T15:25:52.158Z,94949
2018-03-27T15:28:20.233Z,94956
2018-03-27T15:30:48.290Z,94945
2018-03-27T15:33:16.367Z,94957
2018-03-27T15:35:45.266Z,94935
2018-03-27T15:38:13.327Z,94952
2018-03-27T15:40:41.390Z,94940
2018-03-27T15:43:09.494Z,94938
2018-03-27T15:45:37.557Z,94940
2018-03-27T15:48:05.630Z,94938
2018-03-27T15:50:35.681Z,94931
2018-03-27T15:53:04.574Z,94924
2018-03-27T15:55:32.674Z,94918
2018-03-27T15:58:00.836Z,94920
2018-03-27T16:00:28.891Z,94915
2018-03-27T16:02:57.197Z,94920
2018-03-27T16:05:25.259Z,94909
2018-03-27T16:07:53.450Z,94918
2018-03-27T16:10:21.555Z,94917
2018-03-27T16:12:50.596Z,94913
2018-03-27T16:15:18.653Z,94909
2018-03-27T16:17:46.730Z,94914
2018-03-27T16:20:14.807Z,94900
2018-03-27T16:22:44.344Z,94896
2018-03-27T16:25:13.392Z,94901
2018-03-27T16:27:43.349Z,94900
2018-03-27T16:30:11.677Z,94902
2018-03-27T16:32:39.754Z,94894
2018-03-27T16:35:08.777Z,94908
2018-03-27T16:37:37.619Z,94906
2018-03-27T16:40:05.714Z,94907
2018-03-27T16:42:33.830Z,94899
2018-03-27T16:45:02.042Z,94903
2018-03-27T16:47:30.130Z,94897
2018-03-27T16:49:58.194Z,94890
2018-03-27T16:52:26.498Z,94896
2018-03-27T16:54:54.679Z,94889
2018-03-27T16:57:22.812Z,94885
2018-03-27T16:59:50.938Z,94882
2018-03-27T17:02:19.206Z,94886
2018-03-27T17:04:47.285Z,94880
2018-03-27T17:07:15.334Z,94889
2018-03-27T17:09:57.545Z,94891
2018-03-27T17:12:25.636Z,94883
2018-03-27T17:15:06.703Z,94884
2018-03-27T17:17:35.089Z,94874
2018-03-27T17:20:03.250Z,94869
2018-03-27T17:22:31.298Z,94863
2018-03-27T17:24:59.425Z,94865
2018-03-27T17:27:27.766Z,94869
2018-03-27T17:29:55.821Z,94855
2018-03-27T17:32:24.662Z,94860
2018-03-27T17:34:52.741Z,94854
2018-03-27T17:37:21.017Z,94844
2018-03-27T17:39:49.109Z,94842
2018-03-27T17:42:17.159Z,94835
2018-03-27T17:44:45.254Z,94829
2018-03-27T17:47:14.540Z,94829
2018-03-27T17:49:42.646Z,94837
2018-03-27T17:52:10.675Z,94839
2018-03-27T17:54:38.782Z,94829
2018-03-27T17:57:06.865Z,94829
2018-03-27T17:59:34.942Z,94822
2018-03-27T18:02:03.033Z,94837
2018-03-27T18:04:31.389Z,94830
2018-03-27T18:07:01.297Z,94841
2018-03-27T18:09:29.358Z,94835
2018-03-27T18:11:57.410Z,94843
2018-03-27T18:14:26.362Z,94838
2018-03-27T18:16:54.623Z,94832
2018-03-27T18:19:22.694Z,94830
2018-03-27T18:21:51.654Z,94834
2018-03-27T18:24:20.490Z,94838
2018-03-27T18:26:48.866Z,94846
2018-03-27T18:29:16.978Z,94835
2018-03-27T18:31:45.925Z,94834
2018-03-27T18:34:15.117Z,94847
2018-03-27T18:36:45.086Z,94839
2018-03-27T18:39:13.345Z,94828
2018-03-27T18:41:41.400Z,94840
2018-03-27T18:44:09.459Z,94837
2018-03-27T18:46:38.276Z,94829
2018-03-27T18:49:06.444Z,94841
2018-03-27T18:51:35.258Z,94836
2018-03-27T18:54:03.335Z,94830
2018-03-27T18:56:31.454Z,94828
2018-03-27T18:58:59.630Z,94832
2018-03-27T19:01:27.670Z,94833
2018-03-27T19:03:55.926Z,94828
2018-03-27T19:06:24.761Z,94815
2018-03-27T19:08:52.821Z,94820
2018-03-27T19:11:21.252Z,94817
2018-03-27T19:13:49.454Z,94813
2018-03-27T19:16:17.642Z,94816
2018-03-27T19:18:46.102Z,94814
2018-03-27T19:21:14.561Z,94826
2018-03-27T19:23:42.641Z,94825
2018-03-27T19:26:10.711Z,94820
2018-03-27T19:28:38.786Z,94818
2018-03-27T19:31:06.969Z,94816
2018-03-27T19:33:35.350Z,94824
2018-03-27T19:36:03.429Z,94815
2018-03-27T19:38:31.608Z,94809
2018-03-27T19:40:59.759Z,94810
2018-03-27T19:43:27.844Z,94790
2018-03-27T19:45:56.712Z,94799
2018-03-27T19:48:24.831Z,94787
2018-03-27T19:50:52.994Z,94787
2018-03-27T19:53:21.086Z,94794
2018-03-27T19:55:49.184Z,94801
2018-03-27T19:58:17.230Z,94809
2018-03-27T20:00:46.405Z,94794
2018-03-27T20:03:15.196Z,94808
2018-03-27T20:05:43.289Z,94804
2018-03-27T20:08:11.338Z,94802
2018-03-27T20:10:39.406Z,94800
2018-03-27T20:13:08.254Z,94793
2018-03-27T20:15:41.704Z,94799
2018-03-27T20:18:04.615Z,94800
2018-03-27T20:20:32.680Z,94795
2018-03-27T20:23:01.093Z,94799
2018-03-27T20:25:29.194Z,94800
2018-03-27T20:27:58.051Z,94797
2018-03-27T20:30:26.106Z,94788
2018-03-27T20:32:54.272Z,94789
2018-03-27T20:35:22.362Z,94790
2018-03-27T20:37:50.450Z,94792
2018-03-27T20:40:18.518Z,94792
2018-03-27T20:42:47.659Z,94789
2018-03-27T20:45:15.722Z,94782
2018-03-27T20:47:43.771Z,94796
2018-03-27T20:50:12.078Z,94790
2018-03-27T20:52:40.139Z,94790
2018-03-27T20:55:08.202Z,94785
2018-03-27T20:57:36.335Z,94784
2018-03-27T21:00:05.358Z,94785
2018-03-27T21:02:33.461Z,94791
2018-03-27T21:05:02.046Z,94781
2018-03-27T21:07:30.161Z,94782
2018-03-27T21:09:59.298Z,94785
2018-03-27T21:12:27.439Z,94773
2018-03-27T21:14:56.295Z,94771
2018-03-27T21:17:24.367Z,94771
2018-03-27T21:19:52.646Z,94776
2018-03-27T21:22:20.738Z,94782
2018-03-27T21:24:48.789Z,94785
2018-03-27T21:27:18.109Z,94788
2018-03-27T21:29:46.406Z,94772
2018-03-27T21:32:14.476Z,94788
2018-03-27T21:34:42.529Z,94776
2018-03-27T21:37:10.734Z,94780
2018-03-27T21:39:39.124Z,94787
2018-03-27T21:42:07.988Z,94787
2018-03-27T21:44:36.393Z,94782
2018-03-27T21:47:05.502Z,94786
2018-03-27T21:49:34.489Z,94792
2018-03-27T21:52:02.566Z,94790
2018-03-27T21:54:30.865Z,94796
2018-03-27T21:56:59.806Z,94789
2018-03-27T21:59:27.870Z,94776
2018-03-27T22:01:56.693Z,94792
2018-03-27T22:04:24.755Z,94774
2018-03-27T22:06:52.834Z,94784
2018-03-27T22:09:20.886Z,94788
2018-03-27T22:11:49.728Z,94778
2018-03-27T22:14:18.655Z,94789
2018-03-27T22:16:46.807Z,94782
2018-03-27T22:19:14.878Z,94791
2018-03-27T22:21:42.954Z,94785
2018-03-27T22:24:11.028Z,94775
2018-03-27T22:26:39.084Z,94775
2018-03-27T22:29:07.234Z,94772
2018-03-27T22:31:36.894Z,94766
2018-03-27T22:34:05.087Z,94762
2018-03-27T22:36:33.250Z,94760
2018-03-27T22:39:01.320Z,94755
2018-03-27T22:41:29.375Z,94751
2018-03-27T22:43:57.437Z,94763
2018-03-27T22:46:26.262Z,94761
2018-03-27T22:48:54.344Z,94753
2018-03-27T22:51:22.397Z,94754
2018-03-27T22:53:50.507Z,94741
2018-03-27T22:56:19.506Z,94748
2018-03-27T22:58:47.573Z,94738
2018-03-27T23:01:15.654Z,94743
2018-03-27T23:03:43.725Z,94741
2018-03-27T23:06:11.875Z,94742
2018-03-27T23:08:39.990Z,94737
2018-03-27T23:11:08.066Z,94734
2018-03-27T23:13:36.130Z,94724
2018-03-27T23:16:04.198Z,94727
2018-03-27T23:18:32.253Z,94720
2018-03-27T23:21:00.376Z,94734
2018-03-27T23:23:28.550Z,94729
2018-03-27T23:25:56.626Z,94731
2018-03-27T23:28:24.706Z,94729
2018-03-27T23:30:52.764Z,94722
2018-03-27T23:33:20.822Z,94728
2018-03-27T23:35:49.989Z,94711
2018-03-27T23:38:19.946Z,94725
2018-03-27T23:40:48.106Z,94720
2018-03-27T23:43:16.930Z,94710
2018-03-27T23:45:45.066Z,94710
2018-03-27T23:48:13.106Z,94711
2018-03-27T23:50:41.170Z,94717
2018-03-27T23:53:09.265Z,94720
2018-03-27T23:55:37.450Z,94713
2018-03-27T23:58:05.507Z,94724
